MPBO/BOC METAR and TAF weather

Enter ICAO airport designator
Station Type Date Time Source
MPBO METAR 2024/07/12 19:00 UTC NOAA

MPBO 121900Z 34007KT 9999 FEW020 SCT090 32/26 Q1012


Station Type Date Time Source
MPBO Decoded METAR 2024/07/12 19:00 UTC NOAA

Bocas Del Toro International, Panama (MPBO) 09-21N 082-15W
Jul 12, 2024 - 03:00 PM EDT / 2024.07.12 1900 UTC
Wind: from the NNW (340 degrees) at 8 MPH (7 KT):0
Visibility: greater than 7 mile(s):0
Sky conditions: partly cloudy
Temperature: 89 F (32 C)
Heat index: 102.9 F (39.4 C):1
Dew Point: 78 F (26 C)
Relative Humidity: 70%
Pressure (altimeter): 29.88 in. Hg (1012 hPa)
ob: MPBO 121900Z 34007KT 9999 FEW020 SCT090 32/26 Q1012
cycle: 19

Station Type Date Time Source
MPBO TAF 2011/07/19 06:30 UTC NOAA